sensor_id;sensor_type;location;lat;lon;timestamp;pressure;altitude;pressure_sealevel;temperature;humidity
32735;BME280;19112;51.076;3.706;2023-10-13T00:01:55;100749.75;;;18.36;87.15
32735;BME280;19112;51.076;3.706;2023-10-13T00:04:49;100642.59;;;17.84;87.08
32735;BME280;19112;51.076;3.706;2023-10-13T00:07:46;100514.25;;;17.11;86.93
32735;BME280;19112;51.076;3.706;2023-10-13T00:10:34;100766.59;;;18.59;87.29
32735;BME280;19112;51.076;3.706;2023-10-13T00:13:36;100603.66;;;17.78;86.96
32735;BME280;19112;51.076;3.706;2023-10-13T00:16:27;100829.50;;;19.05;87.32
32735;BME280;19112;51.076;3.706;2023-10-13T00:19:58;101080.41;;;20.74;87.52
32735;BME280;19112;51.076;3.706;2023-10-13T00:22:52;101083.09;;;20.66;87.55
32735;BME280;19112;51.076;3.706;2023-10-13T00:25:39;101067.09;;;20.64;87.61
32735;BME280;19112;51.076;3.706;2023-10-13T00:28:59;101071.53;;;20.69;87.65
32735;BME280;19112;51.076;3.706;2023-10-13T00:32:42;101059.06;;;20.72;87.80
32735;BME280;19112;51.076;3.706;2023-10-13T00:35:27;101062.66;;;20.68;87.53
32735;BME280;19112;51.076;3.706;2023-10-13T00:38:30;100698.31;;;18.63;87.27
32735;BME280;19112;51.076;3.706;2023-10-13T00:41:47;100666.41;;;18.63;86.79
32735;BME280;19112;51.076;3.706;2023-10-13T00:44:57;100822.28;;;19.44;86.87
32735;BME280;19112;51.076;3.706;2023-10-13T00:48:06;100661.16;;;18.39;87.04
32735;BME280;19112;51.076;3.706;2023-10-13T00:50:53;101074.16;;;20.79;87.56
32735;BME280;19112;51.076;3.706;2023-10-13T00:54:14;100541.69;;;17.96;86.49
32735;BME280;19112;51.076;3.706;2023-10-13T00:57:52;100809.84;;;19.55;86.75
32735;BME280;19112;51.076;3.706;2023-10-13T01:00:44;100699.16;;;18.90;86.67
32735;BME280;19112;51.076;3.706;2023-10-13T01:04:33;100548.72;;;18.09;86.88
32735;BME280;19112;51.076;3.706;2023-10-13T01:07:49;100703.59;;;18.91;86.75
32735;BME280;19112;51.076;3.706;2023-10-13T01:10:22;100690.31;;;18.84;86.82
32735;BME280;19112;51.076;3.706;2023-10-13T01:13:50;100909.06;;;20.15;87.43
32735;BME280;19112;51.076;3.706;2023-10-13T01:16:56;100860.41;;;19.69;87.39
32735;BME280;19112;51.076;3.706;2023-10-13T01:19:53;100985.28;;;20.63;87.91
32735;BME280;19112;51.076;3.706;2023-10-13T01:22:32;100623.94;;;18.42;87.88
32735;BME280;19112;51.076;3.706;2023-10-13T01:25:29;100976.34;;;20.66;88.15
32735;BME280;19112;51.076;3.706;2023-10-13T01:27:55;100626.53;;;18.57;87.61
32735;BME280;19112;51.076;3.706;2023-10-13T01:30:45;100657.53;;;18.81;87.70
32735;BME280;19112;51.076;3.706;2023-10-13T01:33:57;100871.81;;;20.04;88.13
32735;BME280;19112;51.076;3.706;2023-10-13T01:36:31;100932.97;;;20.32;88.08
32735;BME280;19112;51.076;3.706;2023-10-13T01:39:25;100617.66;;;18.67;88.05
32735;BME280;19112;51.076;3.706;2023-10-13T01:42:11;100596.41;;;18.58;87.84
32735;BME280;19112;51.076;3.706;2023-10-13T01:44:54;100630.03;;;18.87;87.70
32735;BME280;19112;51.076;3.706;2023-10-13T01:47:37;100925.66;;;20.72;87.93
32735;BME280;19112;51.076;3.706;2023-10-13T01:50:24;100918.47;;;20.77;87.49
32735;BME280;19112;51.076;3.706;2023-10-13T01:52:56;100600.78;;;18.79;87.60
32735;BME280;19112;51.076;3.706;2023-10-13T01:55:54;100598.97;;;18.92;87.44
32735;BME280;19112;51.076;3.706;2023-10-13T01:58:45;100576.81;;;18.83;87.59
32735;BME280;19112;51.076;3.706;2023-10-13T02:01:52;100755.44;;;19.97;87.68
32735;BME280;19112;51.076;3.706;2023-10-13T02:04:42;100755.53;;;19.86;87.85
32735;BME280;19112;51.076;3.706;2023-10-13T02:07:36;100583.06;;;18.82;87.83
32735;BME280;19112;51.076;3.706;2023-10-13T02:10:49;100909.53;;;20.81;88.19
32735;BME280;19112;51.076;3.706;2023-10-13T02:13:23;100455.69;;;18.20;87.76
32735;BME280;19112;51.076;3.706;2023-10-13T02:15:56;100506.03;;;18.55;87.95
32735;BME280;19112;51.076;3.706;2023-10-13T02:18:34;100541.38;;;18.81;87.37
32735;BME280;19112;51.076;3.706;2023-10-13T02:21:15;100448.47;;;18.45;87.51
32735;BME280;19112;51.076;3.706;2023-10-13T02:24:12;100852.53;;;20.91;87.43
32735;BME280;19112;51.076;3.706;2023-10-13T02:27:02;100446.69;;;18.47;87.50
32735;BME280;19112;51.076;3.706;2023-10-13T02:30:23;100522.63;;;19.04;87.41
32735;BME280;19112;51.076;3.706;2023-10-13T02:33:20;100520.00;;;18.97;87.28
32735;BME280;19112;51.076;3.706;2023-10-13T02:36:06;100527.09;;;18.98;87.47
32735;BME280;19112;51.076;3.706;2023-10-13T02:39:16;100856.03;;;20.97;87.77
32735;BME280;19112;51.076;3.706;2023-10-13T02:42:22;100512.00;;;18.98;87.63
32735;BME280;19112;51.076;3.706;2023-10-13T02:48:49;100825.00;;;20.88;88.72
32735;BME280;19112;51.076;3.706;2023-10-13T02:52:31;100851.69;;;20.86;89.02
32735;BME280;19112;51.076;3.706;2023-10-13T02:55:30;100689.69;;;20.04;89.50
32735;BME280;19112;51.076;3.706;2023-10-13T02:58:53;100821.56;;;20.71;89.35
32735;BME280;19112;51.076;3.706;2023-10-13T03:01:45;100504.91;;;18.96;89.85
32735;BME280;19112;51.076;3.706;2023-10-13T03:04:53;100473.97;;;18.87;89.82
32735;BME280;19112;51.076;3.706;2023-10-13T03:07:50;100247.00;;;17.58;89.94
32735;BME280;19112;51.076;3.706;2023-10-13T03:11:10;100485.31;;;19.10;89.92
32735;BME280;19112;51.076;3.706;2023-10-13T03:15:05;100360.84;;;18.32;90.15
32735;BME280;19112;51.076;3.706;2023-10-13T03:18:16;100465.06;;;18.93;90.16
32735;BME280;19112;51.076;3.706;2023-10-13T03:21:05;100704.50;;;20.35;90.44
32735;BME280;19112;51.076;3.706;2023-10-13T03:23:58;100499.44;;;19.23;90.07
32735;BME280;19112;51.076;3.706;2023-10-13T03:27:05;100411.91;;;18.83;89.99
32735;BME280;19112;51.076;3.706;2023-10-13T03:29:58;100819.41;;;21.11;90.13
32735;BME280;19112;51.076;3.706;2023-10-13T03:32:57;100502.88;;;19.33;90.14
32735;BME280;19112;51.076;3.706;2023-10-13T03:36:21;100490.41;;;19.38;90.05
32735;BME280;19112;51.076;3.706;2023-10-13T03:39:27;100365.94;;;18.65;89.83
32735;BME280;19112;51.076;3.706;2023-10-13T03:42:21;100483.25;;;19.43;89.97
32735;BME280;19112;51.076;3.706;2023-10-13T03:45:44;100536.25;;;19.75;89.99
32735;BME280;19112;51.076;3.706;2023-10-13T03:48:49;100421.34;;;19.21;89.60
32735;BME280;19112;51.076;3.706;2023-10-13T03:51:32;100772.13;;;21.22;89.80
32735;BME280;19112;51.076;3.706;2023-10-13T03:54:17;100483.28;;;19.45;89.83
32735;BME280;19112;51.076;3.706;2023-10-13T03:56:47;100425.00;;;19.13;90.26
32735;BME280;19112;51.076;3.706;2023-10-13T03:59:22;100742.91;;;21.08;90.49
32735;BME280;19112;51.076;3.706;2023-10-13T04:02:03;100427.38;;;19.38;90.28
32735;BME280;19112;51.076;3.706;2023-10-13T04:04:58;100258.78;;;18.52;90.09
32735;BME280;19112;51.076;3.706;2023-10-13T04:07:50;100243.81;;;18.42;90.35
32735;BME280;19112;51.076;3.706;2023-10-13T04:10:59;100311.72;;;18.86;90.31
32735;BME280;19112;51.076;3.706;2023-10-13T04:13:51;100209.34;;;18.34;90.14
32735;BME280;19112;51.076;3.706;2023-10-13T04:17:32;100353.19;;;19.05;89.82
32735;BME280;19112;51.076;3.706;2023-10-13T04:20:29;100322.25;;;18.95;90.02
32735;BME280;19112;51.076;3.706;2023-10-13T04:24:13;100684.13;;;21.11;90.13
32735;BME280;19112;51.076;3.706;2023-10-13T04:31:58;100266.47;;;18.89;89.92
32735;BME280;19112;51.076;3.706;2023-10-13T04:39:19;100322.94;;;19.15;90.02
32735;BME280;19112;51.076;3.706;2023-10-13T04:42:46;100360.13;;;19.24;90.11
32735;BME280;19112;51.076;3.706;2023-10-13T04:49:32;100338.78;;;19.26;90.29
32735;BME280;19112;51.076;3.706;2023-10-13T04:56:39;100326.34;;;19.29;90.03
32735;BME280;19112;51.076;3.706;2023-10-13T05:03:33;100297.38;;;19.02;90.29
32735;BME280;19112;51.076;3.706;2023-10-13T05:06:51;100605.06;;;21.01;90.44
32735;BME280;19112;51.076;3.706;2023-10-13T05:14:22;100589.13;;;20.97;90.15
32735;BME280;19112;51.076;3.706;2023-10-13T05:20:27;100584.56;;;21.03;89.92
32735;BME280;19112;51.076;3.706;2023-10-13T05:26:54;100102.34;;;18.17;88.93
32735;BME280;19112;51.076;3.706;2023-10-13T05:30:13;100258.22;;;19.13;89.25
32735;BME280;19112;51.076;3.706;2023-10-13T05:36:38;100129.53;;;18.42;89.67
32735;BME280;19112;51.076;3.706;2023-10-13T05:43:40;100538.16;;;21.13;89.66
32735;BME280;19112;51.076;3.706;2023-10-13T05:47:14;100543.47;;;21.13;89.65
32735;BME280;19112;51.076;3.706;2023-10-13T05:50:43;100542.66;;;21.10;89.67
32735;BME280;19112;51.076;3.706;2023-10-13T05:54:36;100195.31;;;19.06;89.84
32735;BME280;19112;51.076;3.706;2023-10-13T06:01:31;100153.88;;;18.87;90.20
32735;BME280;19112;51.076;3.706;2023-10-13T06:04:41;100157.25;;;19.02;90.00
32735;BME280;19112;51.076;3.706;2023-10-13T06:08:06;100087.72;;;18.56;89.79
32735;BME280;19112;51.076;3.706;2023-10-13T06:25:11;100055.94;;;18.47;89.64
32735;BME280;19112;51.076;3.706;2023-10-13T06:27:59;100183.50;;;19.27;89.62
32735;BME280;19112;51.076;3.706;2023-10-13T06:30:57;100163.38;;;19.06;89.76
32735;BME280;19112;51.076;3.706;2023-10-13T06:33:38;100174.69;;;19.25;90.27
32735;BME280;19112;51.076;3.706;2023-10-13T06:36:12;100159.72;;;19.16;90.05
32735;BME280;19112;51.076;3.706;2023-10-13T06:38:56;100299.88;;;19.89;89.83
32735;BME280;19112;51.076;3.706;2023-10-13T06:42:01;99951.16;;;17.94;89.47
32735;BME280;19112;51.076;3.706;2023-10-13T06:44:56;100145.56;;;19.14;89.48
32735;BME280;19112;51.076;3.706;2023-10-13T06:47:26;99850.97;;;17.29;89.38
32735;BME280;19112;51.076;3.706;2023-10-13T06:49:59;100119.31;;;18.87;89.80
32735;BME280;19112;51.076;3.706;2023-10-13T06:52:31;100105.22;;;18.78;89.70
32735;BME280;19112;51.076;3.706;2023-10-13T06:55:00;100088.47;;;18.69;89.72
32735;BME280;19112;51.076;3.706;2023-10-13T06:57:39;100495.31;;;21.19;89.57
32735;BME280;19112;51.076;3.706;2023-10-13T07:00:13;99881.47;;;17.73;89.09
32735;BME280;19112;51.076;3.706;2023-10-13T07:03:05;100189.38;;;19.55;88.82
32735;BME280;19112;51.076;3.706;2023-10-13T07:05:44;100177.69;;;19.67;88.41
32735;BME280;19112;51.076;3.706;2023-10-13T07:08:12;100500.22;;;21.49;88.13
32735;BME280;19112;51.076;3.706;2023-10-13T07:10:56;100190.94;;;19.71;87.73
32735;BME280;19112;51.076;3.706;2023-10-13T07:13:38;100128.06;;;19.58;86.51
32735;BME280;19112;51.076;3.706;2023-10-13T07:16:06;100174.94;;;19.73;86.88
32735;BME280;19112;51.076;3.706;2023-10-13T07:18:41;99919.75;;;18.28;86.49
32735;BME280;19112;51.076;3.706;2023-10-13T07:21:35;100118.28;;;19.58;85.94
32735;BME280;19112;51.076;3.706;2023-10-13T07:24:12;100046.97;;;19.23;86.12
32735;BME280;19112;51.076;3.706;2023-10-13T07:26:40;100021.16;;;19.27;85.82
32735;BME280;19112;51.076;3.706;2023-10-13T07:29:14;100052.69;;;19.53;85.29
32735;BME280;19112;51.076;3.706;2023-10-13T07:31:42;100044.78;;;19.48;84.64
32735;BME280;19112;51.076;3.706;2023-10-13T07:34:10;100150.53;;;19.99;84.61
32735;BME280;19112;51.076;3.706;2023-10-13T07:36:53;99928.63;;;18.90;83.79
32735;BME280;19112;51.076;3.706;2023-10-13T07:39:30;100100.91;;;19.92;82.89
32735;BME280;19112;51.076;3.706;2023-10-13T07:42:03;100143.25;;;20.10;83.15
32735;BME280;19112;51.076;3.706;2023-10-13T07:44:33;99896.16;;;18.67;83.42
32735;BME280;19112;51.076;3.706;2023-10-13T07:47:03;100007.06;;;19.22;83.93
32735;BME280;19112;51.076;3.706;2023-10-13T07:49:37;100132.00;;;19.93;83.75
32735;BME280;19112;51.076;3.706;2023-10-13T07:52:10;100056.97;;;19.65;83.01
32735;BME280;19112;51.076;3.706;2023-10-13T07:54:47;99847.66;;;18.51;82.92
32735;BME280;19112;51.076;3.706;2023-10-13T07:57:26;99897.69;;;18.84;82.56
32735;BME280;19112;51.076;3.706;2023-10-13T07:59:58;99940.56;;;19.20;82.72
32735;BME280;19112;51.076;3.706;2023-10-13T08:03:02;99945.66;;;19.34;82.40
32735;BME280;19112;51.076;3.706;2023-10-13T08:05:57;99841.75;;;18.89;81.68
32735;BME280;19112;51.076;3.706;2023-10-13T08:08:35;100117.44;;;20.61;80.87
32735;BME280;19112;51.076;3.706;2023-10-13T08:11:14;100111.22;;;20.61;80.90
32735;BME280;19112;51.076;3.706;2023-10-13T08:13:57;100430.97;;;22.69;80.37
32735;BME280;19112;51.076;3.706;2023-10-13T08:16:34;100091.22;;;20.83;79.06
32735;BME280;19112;51.076;3.706;2023-10-13T08:19:24;100087.75;;;20.78;78.72
32735;BME280;19112;51.076;3.706;2023-10-13T08:22:02;100158.03;;;21.19;78.85
32735;BME280;19112;51.076;3.706;2023-10-13T08:24:52;100136.84;;;21.11;79.00
32735;BME280;19112;51.076;3.706;2023-10-13T08:27:23;100057.75;;;20.67;78.62
32735;BME280;19112;51.076;3.706;2023-10-13T08:30:20;99924.97;;;19.96;78.46
32735;BME280;19112;51.076;3.706;2023-10-13T08:33:05;100077.53;;;20.99;78.46
32735;BME280;19112;51.076;3.706;2023-10-13T08:35:51;100136.59;;;21.24;78.40
32735;BME280;19112;51.076;3.706;2023-10-13T08:38:44;99857.31;;;19.60;78.07
32735;BME280;19112;51.076;3.706;2023-10-13T08:41:19;100134.09;;;21.14;77.92
32735;BME280;19112;51.076;3.706;2023-10-13T08:44:02;100102.88;;;21.18;77.81
32735;BME280;19112;51.076;3.706;2023-10-13T08:46:34;100111.53;;;21.29;77.02
32735;BME280;19112;51.076;3.706;2023-10-13T08:49:21;100046.09;;;20.71;77.21
32735;BME280;19112;51.076;3.706;2023-10-13T08:51:55;99916.66;;;20.11;76.98
32735;BME280;19112;51.076;3.706;2023-10-13T08:54:35;100005.06;;;20.78;76.64
32735;BME280;19112;51.076;3.706;2023-10-13T08:57:10;99957.44;;;20.60;76.26
32735;BME280;19112;51.076;3.706;2023-10-13T08:59:56;100130.69;;;21.50;76.42
32735;BME280;19112;51.076;3.706;2023-10-13T09:02:45;99921.34;;;20.42;76.14
32735;BME280;19112;51.076;3.706;2023-10-13T09:05:49;100088.25;;;21.37;76.37
32735;BME280;19112;51.076;3.706;2023-10-13T09:08:29;100058.72;;;21.05;76.00
32735;BME280;19112;51.076;3.706;2023-10-13T09:11:03;100204.06;;;22.12;76.14
32735;BME280;19112;51.076;3.706;2023-10-13T09:13:43;100072.41;;;21.28;76.08
32735;BME280;19112;51.076;3.706;2023-10-13T09:16:14;100111.94;;;21.51;75.83
32735;BME280;19112;51.076;3.706;2023-10-13T09:19:05;99984.69;;;20.74;75.27
32735;BME280;19112;51.076;3.706;2023-10-13T09:21:42;99944.81;;;20.66;75.21
32735;BME280;19112;51.076;3.706;2023-10-13T09:24:12;99972.75;;;20.90;75.88
32735;BME280;19112;51.076;3.706;2023-10-13T09:26:43;100080.72;;;21.55;75.23
32735;BME280;19112;51.076;3.706;2023-10-13T09:29:19;100150.81;;;22.02;74.46
32735;BME280;19112;51.076;3.706;2023-10-13T09:31:47;100253.13;;;22.81;74.29
32735;BME280;19112;51.076;3.706;2023-10-13T09:34:23;100312.34;;;23.36;73.40
32735;BME280;19112;51.076;3.706;2023-10-13T09:36:59;100258.31;;;22.87;73.78
32735;BME280;19112;51.076;3.706;2023-10-13T09:39:36;100356.91;;;23.40;73.74
32735;BME280;19112;51.076;3.706;2023-10-13T09:42:19;100359.19;;;23.53;73.57
32735;BME280;19112;51.076;3.706;2023-10-13T09:44:46;100366.94;;;23.64;72.68
32735;BME280;19112;51.076;3.706;2023-10-13T09:47:23;100212.78;;;22.55;72.90
32735;BME280;19112;51.076;3.706;2023-10-13T09:50:08;100277.88;;;22.91;72.12
32735;BME280;19112;51.076;3.706;2023-10-13T09:52:43;100251.25;;;22.83;72.89
32735;BME280;19112;51.076;3.706;2023-10-13T09:55:30;100290.53;;;23.17;73.41
32735;BME280;19112;51.076;3.706;2023-10-13T09:58:04;100205.00;;;22.45;73.51
32735;BME280;19112;51.076;3.706;2023-10-13T10:00:47;100245.66;;;22.60;72.93
32735;BME280;19112;51.076;3.706;2023-10-13T10:03:30;100280.31;;;22.64;73.78
32735;BME280;19112;51.076;3.706;2023-10-13T10:06:00;100317.69;;;22.67;73.78
32735;BME280;19112;51.076;3.706;2023-10-13T10:08:33;100385.47;;;23.05;73.93
32735;BME280;19112;51.076;3.706;2023-10-13T10:14:56;100267.56;;;22.40;74.36
32735;BME280;19112;51.076;3.706;2023-10-13T10:17:06;100366.47;;;22.80;75.54
32735;BME280;19112;51.076;3.706;2023-10-13T10:19:53;100376.25;;;22.81;76.13
32735;BME280;19112;51.076;3.706;2023-10-13T10:22:33;100257.28;;;22.23;74.40
32735;BME280;19112;51.076;3.706;2023-10-13T10:25:06;100277.28;;;22.44;75.46
32735;BME280;19112;51.076;3.706;2023-10-13T10:27:41;100331.63;;;22.82;75.29
32735;BME280;19112;51.076;3.706;2023-10-13T10:30:08;100354.72;;;22.86;75.55
32735;BME280;19112;51.076;3.706;2023-10-13T10:32:39;100317.44;;;22.78;74.95
32735;BME280;19112;51.076;3.706;2023-10-13T10:35:14;100332.91;;;23.03;74.92
32735;BME280;19112;51.076;3.706;2023-10-13T10:37:41;100266.13;;;22.61;74.27
32735;BME280;19112;51.076;3.706;2023-10-13T10:40:17;100328.19;;;23.11;75.30
32735;BME280;19112;51.076;3.706;2023-10-13T10:43:03;100182.03;;;22.37;74.25
32735;BME280;19112;51.076;3.706;2023-10-13T10:45:37;100350.25;;;23.55;74.39
32735;BME280;19112;51.076;3.706;2023-10-13T10:48:12;100293.53;;;23.37;74.06
32735;BME280;19112;51.076;3.706;2023-10-13T10:51:01;100304.84;;;23.79;73.07
32735;BME280;19112;51.076;3.706;2023-10-13T10:53:54;100336.84;;;24.15;71.97
32735;BME280;19112;51.076;3.706;2023-10-13T10:56:24;100254.34;;;23.66;71.36
32735;BME280;19112;51.076;3.706;2023-10-13T10:59:08;100341.13;;;24.21;70.94
32735;BME280;19112;51.076;3.706;2023-10-13T11:01:46;100332.56;;;24.38;70.38
32735;BME280;19112;51.076;3.706;2023-10-13T11:04:17;100063.38;;;22.70;67.62
32735;BME280;19112;51.076;3.706;2023-10-13T11:06:58;100046.66;;;22.64;69.79
32735;BME280;19112;51.076;3.706;2023-10-13T11:09:32;100012.53;;;22.70;68.91
32735;BME280;19112;51.076;3.706;2023-10-13T11:12:15;100045.53;;;23.00;68.81
32735;BME280;19112;51.076;3.706;2023-10-13T11:14:43;100044.34;;;23.11;68.72
32735;BME280;19112;51.076;3.706;2023-10-13T11:17:24;99888.97;;;22.28;68.99
32735;BME280;19112;51.076;3.706;2023-10-13T11:20:12;100111.78;;;23.81;66.99
32735;BME280;19112;51.076;3.706;2023-10-13T11:22:49;100037.53;;;23.29;63.88
32735;BME280;19112;51.076;3.706;2023-10-13T11:25:24;100004.03;;;23.15;67.43
32735;BME280;19112;51.076;3.706;2023-10-13T11:28:17;100041.63;;;23.40;66.45
32735;BME280;19112;51.076;3.706;2023-10-13T11:30:48;99881.22;;;22.77;65.67
32735;BME280;19112;51.076;3.706;2023-10-13T11:33:26;99985.06;;;23.49;66.42
32735;BME280;19112;51.076;3.706;2023-10-13T11:35:58;100022.97;;;23.65;64.37
32735;BME280;19112;51.076;3.706;2023-10-13T11:38:37;99899.84;;;23.08;64.51
32735;BME280;19112;51.076;3.706;2023-10-13T11:41:11;100325.09;;;25.52;65.10
32735;BME280;19112;51.076;3.706;2023-10-13T11:43:52;100011.66;;;23.82;65.07
32735;BME280;19112;51.076;3.706;2023-10-13T11:46:23;99840.59;;;22.64;64.18
32735;BME280;19112;51.076;3.706;2023-10-13T11:49:07;100315.78;;;25.37;65.32
32735;BME280;19112;51.076;3.706;2023-10-13T11:51:50;100009.59;;;23.64;65.16
32735;BME280;19112;51.076;3.706;2023-10-13T11:54:22;99870.84;;;22.66;64.86
32735;BME280;19112;51.076;3.706;2023-10-13T12:00:18;100012.44;;;23.58;65.31
32735;BME280;19112;51.076;3.706;2023-10-13T12:03:20;99983.97;;;23.55;64.99
32735;BME280;19112;51.076;3.706;2023-10-13T12:06:09;99990.94;;;23.61;65.31
32735;BME280;19112;51.076;3.706;2023-10-13T12:09:05;100280.16;;;25.55;64.82
32735;BME280;19112;51.076;3.706;2023-10-13T12:11:44;100031.09;;;23.89;61.15
32735;BME280;19112;51.076;3.706;2023-10-13T12:14:15;99908.25;;;23.48;61.93
32735;BME280;19112;51.076;3.706;2023-10-13T12:17:03;99992.38;;;24.21;62.10
32735;BME280;19112;51.076;3.706;2023-10-13T12:19:33;99955.94;;;23.90;62.02
32735;BME280;19112;51.076;3.706;2023-10-13T12:22:02;99979.88;;;24.45;60.74
32735;BME280;19112;51.076;3.706;2023-10-13T12:24:33;99963.75;;;24.21;59.96
32735;BME280;19112;51.076;3.706;2023-10-13T12:27:03;100053.94;;;24.97;60.42
32735;BME280;19112;51.076;3.706;2023-10-13T12:29:46;99907.03;;;24.09;59.76
32735;BME280;19112;51.076;3.706;2023-10-13T12:32:13;99966.88;;;24.58;60.11
32735;BME280;19112;51.076;3.706;2023-10-13T12:34:40;100221.75;;;26.04;59.63
32735;BME280;19112;51.076;3.706;2023-10-13T12:37:30;100032.00;;;24.86;60.52
32735;BME280;19112;51.076;3.706;2023-10-13T12:40:19;100022.78;;;24.70;61.85
32735;BME280;19112;51.076;3.706;2023-10-13T12:43:07;100084.59;;;24.92;61.84
32735;BME280;19112;51.076;3.706;2023-10-13T12:45:51;100066.34;;;24.78;63.01
32735;BME280;19112;51.076;3.706;2023-10-13T12:48:37;99957.75;;;24.15;62.58
32735;BME280;19112;51.076;3.706;2023-10-13T12:51:35;100117.75;;;24.91;65.02
32735;BME280;19112;51.076;3.706;2023-10-13T12:54:03;99775.34;;;22.68;63.54
32735;BME280;19112;51.076;3.706;2023-10-13T12:56:49;100251.03;;;25.43;63.51
32735;BME280;19112;51.076;3.706;2023-10-13T12:59:25;99805.97;;;22.86;64.94
32735;BME280;19112;51.076;3.706;2023-10-13T13:01:56;99852.78;;;23.00;65.75
32735;BME280;19112;51.076;3.706;2023-10-13T13:04:22;99969.94;;;23.47;65.47
32735;BME280;19112;51.076;3.706;2023-10-13T13:06:51;99879.59;;;22.99;65.59
32735;BME280;19112;51.076;3.706;2023-10-13T13:09:20;100235.25;;;25.11;66.04
32735;BME280;19112;51.076;3.706;2023-10-13T13:11:54;99948.41;;;23.23;65.72
32735;BME280;19112;51.076;3.706;2023-10-13T13:14:24;99869.00;;;22.68;65.17
32735;BME280;19112;51.076;3.706;2023-10-13T13:16:57;99967.53;;;23.13;65.60
32735;BME280;19112;51.076;3.706;2023-10-13T13:19:36;100081.44;;;23.79;65.21
32735;BME280;19112;51.076;3.706;2023-10-13T13:22:11;99864.13;;;22.53;63.79
32735;BME280;19112;51.076;3.706;2023-10-13T13:24:41;99932.84;;;22.80;63.71
32735;BME280;19112;51.076;3.706;2023-10-13T13:27:15;99974.69;;;23.12;64.30
32735;BME280;19112;51.076;3.706;2023-10-13T13:29:46;99983.19;;;23.25;63.54
32735;BME280;19112;51.076;3.706;2023-10-13T13:32:15;99897.66;;;22.64;65.04
32735;BME280;19112;51.076;3.706;2023-10-13T13:34:54;99848.59;;;22.37;65.34
32735;BME280;19112;51.076;3.706;2023-10-13T13:37:28;99832.16;;;22.49;65.67
32735;BME280;19112;51.076;3.706;2023-10-13T13:39:55;99997.91;;;23.38;65.29
32735;BME280;19112;51.076;3.706;2023-10-13T13:42:20;100143.25;;;24.29;62.79
32735;BME280;19112;51.076;3.706;2023-10-13T13:44:47;99889.44;;;22.98;65.53
32735;BME280;19112;51.076;3.706;2023-10-13T13:47:14;100033.19;;;23.79;65.92
32735;BME280;19112;51.076;3.706;2023-10-13T13:49:43;100073.03;;;23.90;66.35
32735;BME280;19112;51.076;3.706;2023-10-13T13:52:18;100137.16;;;24.24;66.21
32735;BME280;19112;51.076;3.706;2023-10-13T13:54:52;100273.81;;;25.08;66.14
32735;BME280;19112;51.076;3.706;2023-10-13T13:57:19;99959.81;;;23.30;65.55
32735;BME280;19112;51.076;3.706;2023-10-13T13:59:45;99963.72;;;23.20;65.47
32735;BME280;19112;51.076;3.706;2023-10-13T14:02:11;99894.47;;;22.80;66.09
32735;BME280;19112;51.076;3.706;2023-10-13T14:04:53;99953.72;;;23.25;66.58
32735;BME280;19112;51.076;3.706;2023-10-13T14:07:19;99905.56;;;22.97;65.27
32735;BME280;19112;51.076;3.706;2023-10-13T14:10:05;100027.75;;;23.82;66.79
32735;BME280;19112;51.076;3.706;2023-10-13T14:12:34;99943.16;;;23.20;66.30
32735;BME280;19112;51.076;3.706;2023-10-13T14:15:09;99913.34;;;23.05;65.03
32735;BME280;19112;51.076;3.706;2023-10-13T14:17:56;100222.78;;;24.83;65.72
32735;BME280;19112;51.076;3.706;2023-10-13T14:20:25;99857.13;;;22.77;64.68
32735;BME280;19112;51.076;3.706;2023-10-13T14:22:53;100214.25;;;24.72;65.32
32735;BME280;19112;51.076;3.706;2023-10-13T14:25:20;99813.03;;;22.34;64.44
32735;BME280;19112;51.076;3.706;2023-10-13T14:28:06;99829.69;;;22.42;66.36
32735;BME280;19112;51.076;3.706;2023-10-13T14:30:33;100006.88;;;23.37;66.66
32735;BME280;19112;51.076;3.706;2023-10-13T14:32:59;99823.94;;;22.26;66.82
32735;BME280;19112;51.076;3.706;2023-10-13T14:35:36;99723.66;;;21.85;66.42
32735;BME280;19112;51.076;3.706;2023-10-13T14:38:03;100176.97;;;24.63;63.69
32735;BME280;19112;51.076;3.706;2023-10-13T14:40:29;99782.16;;;22.23;64.86
32735;BME280;19112;51.076;3.706;2023-10-13T14:42:56;100198.53;;;24.60;65.72
32735;BME280;19112;51.076;3.706;2023-10-13T14:45:22;99776.13;;;22.17;66.28
32735;BME280;19112;51.076;3.706;2023-10-13T14:47:50;99871.47;;;22.74;65.55
32735;BME280;19112;51.076;3.706;2023-10-13T14:50:23;100076.66;;;23.89;64.39
32735;BME280;19112;51.076;3.706;2023-10-13T14:52:57;99803.94;;;22.39;65.83
32735;BME280;19112;51.076;3.706;2023-10-13T14:55:24;99990.69;;;23.68;66.80
32735;BME280;19112;51.076;3.706;2023-10-13T14:58:03;99858.94;;;22.76;65.73
32735;BME280;19112;51.076;3.706;2023-10-13T15:00:34;99662.19;;;21.85;66.74
32735;BME280;19112;51.076;3.706;2023-10-13T15:03:00;99801.84;;;22.49;66.67
32735;BME280;19112;51.076;3.706;2023-10-13T15:05:27;99663.50;;;21.71;65.43
32735;BME280;19112;51.076;3.706;2023-10-13T15:07:58;99855.56;;;22.97;66.15
32735;BME280;19112;51.076;3.706;2023-10-13T15:10:29;100124.06;;;24.66;65.64
32735;BME280;19112;51.076;3.706;2023-10-13T15:12:58;99772.56;;;22.71;66.13
32735;BME280;19112;51.076;3.706;2023-10-13T15:15:32;99707.56;;;22.14;66.06
32735;BME280;19112;51.076;3.706;2023-10-13T15:17:58;99801.59;;;22.83;64.95
32735;BME280;19112;51.076;3.706;2023-10-13T15:20:30;99786.97;;;22.67;65.76
32735;BME280;19112;51.076;3.706;2023-10-13T15:22:57;99775.13;;;22.74;65.59
32735;BME280;19112;51.076;3.706;2023-10-13T15:25:33;99984.03;;;24.05;65.71
32735;BME280;19112;51.076;3.706;2023-10-13T15:28:15;99774.94;;;22.80;64.11
32735;BME280;19112;51.076;3.706;2023-10-13T15:30:48;100084.59;;;24.68;65.14
32735;BME280;19112;51.076;3.706;2023-10-13T15:33:38;99660.31;;;22.15;64.98
32735;BME280;19112;51.076;3.706;2023-10-13T15:36:09;99794.09;;;22.94;64.35